createdAt,value
2019-06-01T00:00:11.001Z,1018.29
2019-06-01T00:01:01.497Z,1018.25
2019-06-01T00:02:00.435Z,1018.28
2019-06-01T00:03:00.429Z,1018.27
2019-06-01T00:04:00.678Z,1018.29
2019-06-01T00:05:00.389Z,1018.29
2019-06-01T00:06:00.378Z,1018.27
2019-06-01T00:07:00.364Z,1018.26
2019-06-01T00:08:00.358Z,1018.23
2019-06-01T00:09:00.359Z,1018.21
2019-06-01T00:10:00.334Z,1018.22
2019-06-01T00:11:00.323Z,1018.22
2019-06-01T00:12:00.316Z,1018.22
2019-06-01T00:13:00.303Z,1018.20
2019-06-01T00:14:00.305Z,1018.23
2019-06-01T00:15:00.282Z,1018.23
2019-06-01T00:16:00.275Z,1018.20
2019-06-01T00:17:00.259Z,1018.21
2019-06-01T00:18:00.260Z,1018.20
2019-06-01T00:19:00.257Z,1018.24
2019-06-01T00:20:00.232Z,1018.18
2019-06-01T00:21:00.219Z,1018.17
2019-06-01T00:22:00.211Z,1018.26
2019-06-01T00:23:00.198Z,1018.21
2019-06-01T00:24:00.209Z,1018.23
2019-06-01T00:25:00.179Z,1018.21
2019-06-01T00:26:00.186Z,1018.24
2019-06-01T00:27:00.161Z,1018.23
2019-06-01T00:28:00.151Z,1018.22
2019-06-01T00:29:00.161Z,1018.21
2019-06-01T00:30:00.124Z,1018.24
2019-06-01T00:31:00.127Z,1018.22
2019-06-01T00:32:00.113Z,1018.16
2019-06-01T00:33:00.094Z,1018.19
2019-06-01T00:34:00.098Z,1018.17
2019-06-01T00:35:00.079Z,1018.14
2019-06-01T00:36:00.063Z,1018.18
2019-06-01T00:37:00.061Z,1018.16
2019-06-01T00:38:00.042Z,1018.19
2019-06-01T00:39:00.046Z,1018.18
2019-06-01T00:40:00.023Z,1018.21
2019-06-01T00:41:00.014Z,1018.18
2019-06-01T00:42:00.000Z,1018.16
2019-06-01T00:42:59.989Z,1018.17
2019-06-01T00:44:00.030Z,1018.17
2019-06-01T00:44:59.965Z,1018.14
2019-06-01T00:46:00.698Z,1018.14
2019-06-01T00:46:59.945Z,1018.17
2019-06-01T00:47:59.935Z,1018.10
2019-06-01T00:48:59.954Z,1018.10
2019-06-01T00:49:59.923Z,1018.11
2019-06-01T00:50:59.907Z,1018.08
2019-06-01T00:51:59.895Z,1018.04
2019-06-01T00:52:59.910Z,1018.08
2019-06-01T00:54:00.667Z,1018.03
2019-06-01T00:54:59.889Z,1018.09
2019-06-01T00:55:59.854Z,1018.05
2019-06-01T00:56:59.847Z,1018.08
2019-06-01T00:57:59.841Z,1018.10
2019-06-01T00:58:59.820Z,1018.12
2019-06-01T00:59:59.829Z,1018.11
2019-06-01T01:00:59.803Z,1018.13
2019-06-01T01:01:59.801Z,1018.08
2019-06-01T01:02:59.783Z,1018.09
2019-06-01T01:03:59.769Z,1018.11
2019-06-01T01:04:59.850Z,1018.07
2019-06-01T01:05:59.749Z,1018.12
2019-06-01T01:06:59.737Z,1018.12
2019-06-01T01:07:59.730Z,1018.12
2019-06-01T01:08:59.721Z,1018.08
2019-06-01T01:09:59.724Z,1018.07
2019-06-01T01:10:59.700Z,1018.06
2019-06-01T01:11:59.692Z,1018.08
2019-06-01T01:12:59.679Z,1018.06
2019-06-01T01:13:59.666Z,1018.09
2019-06-01T01:14:59.676Z,1018.07
2019-06-01T01:15:59.645Z,1018.06
2019-06-01T01:16:59.636Z,1018.08
2019-06-01T01:17:59.629Z,1018.08
2019-06-01T01:18:59.620Z,1018.09
2019-06-01T01:19:59.632Z,1018.16
2019-06-01T01:20:59.594Z,1018.09
2019-06-01T01:21:59.586Z,1018.12
2019-06-01T01:22:59.574Z,1018.12
2019-06-01T01:23:59.576Z,1018.11
2019-06-01T01:24:59.568Z,1018.14
2019-06-01T01:25:59.543Z,1018.09
2019-06-01T01:26:59.575Z,1018.14
2019-06-01T01:27:59.522Z,1018.12
2019-06-01T01:28:59.514Z,1018.11
2019-06-01T01:29:59.513Z,1018.09
2019-06-01T01:31:12.092Z,1018.05
2019-06-01T01:32:00.481Z,1018.01
2019-06-01T01:32:59.588Z,1018.04
2019-06-01T01:33:59.459Z,1018.01
2019-06-01T01:34:59.459Z,1018.02
2019-06-01T01:35:59.443Z,1017.98
2019-06-01T01:36:59.426Z,1017.99
2019-06-01T01:38:00.149Z,1018.03
2019-06-01T01:38:59.408Z,1018.02
2019-06-01T01:39:59.413Z,1018.00
2019-06-01T01:40:59.535Z,1017.99
2019-06-01T01:41:59.372Z,1017.99
2019-06-01T01:42:59.366Z,1017.95
2019-06-01T01:43:59.356Z,1017.97
2019-06-01T01:44:59.357Z,1017.96
2019-06-01T01:45:59.330Z,1017.94
2019-06-01T01:46:59.324Z,1017.95
2019-06-01T01:47:59.333Z,1017.95
2019-06-01T01:48:59.305Z,1017.91
2019-06-01T01:49:59.312Z,1017.97
2019-06-01T01:50:59.287Z,1017.99
2019-06-01T01:51:59.522Z,1017.94
2019-06-01T01:52:59.271Z,1017.94
2019-06-01T01:53:59.249Z,1017.95
2019-06-01T01:54:59.254Z,1018.02
2019-06-01T01:55:59.235Z,1017.93
2019-06-01T01:56:59.228Z,1017.93
2019-06-01T01:57:59.521Z,1017.97
2019-06-01T01:58:59.199Z,1017.93
2019-06-01T01:59:59.460Z,1017.93
2019-06-01T02:01:00.336Z,1017.90
2019-06-01T02:02:00.169Z,1017.98
2019-06-01T02:03:00.100Z,1017.95
2019-06-01T02:03:59.154Z,1017.93
2019-06-01T02:04:59.921Z,1017.93
2019-06-01T02:05:59.213Z,1017.90
2019-06-01T02:07:00.308Z,1017.91
2019-06-01T02:08:00.074Z,1017.91
2019-06-01T02:08:59.426Z,1017.90
2019-06-01T02:09:59.299Z,1017.90
2019-06-01T02:10:59.521Z,1017.93
2019-06-01T02:11:59.633Z,1017.86
2019-06-01T02:12:59.645Z,1017.91
2019-06-01T02:13:59.935Z,1017.86
2019-06-01T02:14:59.789Z,1017.89
2019-06-01T02:16:00.559Z,1017.83
2019-06-01T02:17:00.272Z,1017.81
2019-06-01T02:18:00.464Z,1017.84
2019-06-01T02:19:00.437Z,1017.79
2019-06-01T02:20:00.208Z,1017.76
2019-06-01T02:20:58.970Z,1017.76
2019-06-01T02:21:58.963Z,1017.76
2019-06-01T02:22:59.011Z,1017.71
2019-06-01T02:23:59.100Z,1017.74
2019-06-01T02:24:59.871Z,1017.72
2019-06-01T02:25:58.959Z,1017.70
2019-06-01T02:26:59.327Z,1017.73
2019-06-01T02:27:59.278Z,1017.81
2019-06-01T02:28:59.539Z,1017.80
2019-06-01T02:29:59.380Z,1017.76
2019-06-01T02:30:59.965Z,1017.79
2019-06-01T02:31:59.252Z,1017.76
2019-06-01T02:33:00.172Z,1017.80
2019-06-01T02:34:01.031Z,1017.77
2019-06-01T02:35:00.208Z,1017.79
2019-06-01T02:36:00.647Z,1017.77
2019-06-01T02:37:00.235Z,1017.75
2019-06-01T02:38:00.177Z,1017.75
2019-06-01T02:39:00.915Z,1017.69
2019-06-01T02:39:58.792Z,1017.67
2019-06-01T02:40:58.958Z,1017.70
2019-06-01T02:42:01.076Z,1017.65
2019-06-01T02:42:59.283Z,1017.70
2019-06-01T02:43:59.128Z,1017.71
2019-06-01T02:44:59.224Z,1017.65
2019-06-01T02:46:00.366Z,1017.72
2019-06-01T02:46:59.551Z,1017.72
2019-06-01T02:47:59.485Z,1017.66
2019-06-01T02:48:59.802Z,1017.72
2019-06-01T02:49:59.434Z,1017.70
2019-06-01T02:50:59.922Z,1017.69
2019-06-01T02:51:59.246Z,1017.65
2019-06-01T02:52:59.429Z,1017.62
2019-06-01T02:53:59.594Z,1017.68
2019-06-01T02:54:59.632Z,1017.68
2019-06-01T02:55:59.845Z,1017.72
2019-06-01T02:56:58.593Z,1017.69
2019-06-01T02:57:58.588Z,1017.68
2019-06-01T02:58:58.573Z,1017.68
2019-06-01T02:59:58.574Z,1017.67
2019-06-01T03:00:59.014Z,1017.67
2019-06-01T03:02:04.818Z,1017.70
2019-06-01T03:03:00.722Z,1017.68
2019-06-01T03:03:59.524Z,1017.70
2019-06-01T03:04:59.064Z,1017.69
2019-06-01T03:05:59.277Z,1017.64
2019-06-01T03:06:59.522Z,1017.70
2019-06-01T03:07:59.362Z,1017.67
2019-06-01T03:08:59.775Z,1017.71
2019-06-01T03:09:58.766Z,1017.73
2019-06-01T03:10:59.642Z,1017.71
2019-06-01T03:11:59.363Z,1017.69
2019-06-01T03:12:58.427Z,1017.72
2019-06-01T03:13:58.419Z,1017.74
2019-06-01T03:14:58.403Z,1017.74
2019-06-01T03:15:58.406Z,1017.72
2019-06-01T03:16:59.817Z,1017.73
2019-06-01T03:17:59.407Z,1017.71
2019-06-01T03:18:59.621Z,1017.72
2019-06-01T03:19:59.534Z,1017.74
2019-06-01T03:20:59.491Z,1017.76
2019-06-01T03:21:59.561Z,1017.70
2019-06-01T03:22:59.601Z,1017.71
2019-06-01T03:23:58.310Z,1017.66
2019-06-01T03:24:58.298Z,1017.72
2019-06-01T03:25:58.303Z,1017.70
2019-06-01T03:26:58.281Z,1017.67
2019-06-01T03:27:58.276Z,1017.71
2019-06-01T03:28:58.257Z,1017.67
2019-06-01T03:29:58.247Z,1017.67
2019-06-01T03:30:58.256Z,1017.67
2019-06-01T03:32:19.122Z,1017.68
2019-06-01T03:33:01.080Z,1017.71
2019-06-01T03:33:58.213Z,1017.68
2019-06-01T03:34:58.195Z,1017.68
2019-06-01T03:35:58.201Z,1017.67
2019-06-01T03:36:58.177Z,1017.69
2019-06-01T03:37:58.164Z,1017.69
2019-06-01T03:38:58.157Z,1017.67
2019-06-01T03:39:58.149Z,1017.66
2019-06-01T03:40:58.146Z,1017.65
2019-06-01T03:41:58.134Z,1017.68
2019-06-01T03:42:58.142Z,1017.65
2019-06-01T03:43:58.127Z,1017.64
2019-06-01T03:44:58.089Z,1017.63
2019-06-01T03:45:58.096Z,1017.66
2019-06-01T03:46:58.174Z,1017.65
2019-06-01T03:47:58.063Z,1017.64
2019-06-01T03:48:58.052Z,1017.69
2019-06-01T03:49:58.042Z,1017.71
2019-06-01T03:50:58.724Z,1017.70
2019-06-01T03:51:58.023Z,1017.73
2019-06-01T03:52:58.008Z,1017.72
2019-06-01T03:53:58.017Z,1017.74
2019-06-01T03:54:57.986Z,1017.78
2019-06-01T03:55:57.990Z,1017.73
2019-06-01T03:56:57.975Z,1017.74
2019-06-01T03:57:57.956Z,1017.74
2019-06-01T03:58:57.943Z,1017.78
2019-06-01T03:59:57.943Z,1017.78
2019-06-01T04:00:57.946Z,1017.77
2019-06-01T04:01:57.923Z,1017.76
2019-06-01T04:02:57.905Z,1017.80
2019-06-01T04:03:57.895Z,1017.77
2019-06-01T04:04:57.891Z,1017.78
2019-06-01T04:05:57.893Z,1017.76
2019-06-01T04:06:57.869Z,1017.72
2019-06-01T04:07:57.854Z,1017.77
2019-06-01T04:08:57.846Z,1017.76
2019-06-01T04:09:57.835Z,1017.76
2019-06-01T04:10:57.843Z,1017.76
2019-06-01T04:11:57.818Z,1017.77
2019-06-01T04:12:57.804Z,1017.77
2019-06-01T04:13:57.789Z,1017.83
2019-06-01T04:14:57.787Z,1017.80
2019-06-01T04:15:57.766Z,1017.81
2019-06-01T04:16:57.774Z,1017.81
2019-06-01T04:17:57.750Z,1017.88
2019-06-01T04:18:57.741Z,1017.85
2019-06-01T04:19:57.740Z,1017.84
2019-06-01T04:20:57.717Z,1017.87
2019-06-01T04:21:57.724Z,1017.87
2019-06-01T04:22:57.695Z,1017.86
2019-06-01T04:23:57.686Z,1017.87
2019-06-01T04:24:57.679Z,1017.87
2019-06-01T04:25:57.664Z,1017.83
2019-06-01T04:26:57.669Z,1017.87
2019-06-01T04:27:57.641Z,1017.86
2019-06-01T04:28:57.639Z,1017.84
2019-06-01T04:29:57.627Z,1017.88
2019-06-01T04:30:57.614Z,1017.85
2019-06-01T04:31:57.609Z,1017.90
2019-06-01T04:32:57.591Z,1017.88
2019-06-01T04:33:57.579Z,1017.88
2019-06-01T04:34:57.571Z,1017.86
2019-06-01T04:35:57.560Z,1017.85
2019-06-01T04:36:57.567Z,1017.87
2019-06-01T04:37:57.541Z,1017.87
2019-06-01T04:38:57.537Z,1017.81
2019-06-01T04:39:57.527Z,1017.84
2019-06-01T04:40:57.522Z,1017.80
2019-06-01T04:41:57.513Z,1017.84
2019-06-01T04:42:57.487Z,1017.84
2019-06-01T04:43:57.475Z,1017.84
2019-06-01T04:44:57.466Z,1017.85
2019-06-01T04:45:57.463Z,1017.82
2019-06-01T04:46:57.455Z,1017.87
2019-06-01T04:47:57.435Z,1017.86
2019-06-01T04:48:57.422Z,1017.90
2019-06-01T04:49:57.411Z,1017.86
2019-06-01T04:50:57.401Z,1017.90
2019-06-01T04:51:57.403Z,1017.92
2019-06-01T04:52:57.377Z,1017.91
2019-06-01T04:53:57.367Z,1017.90
2019-06-01T04:54:57.356Z,1017.88
2019-06-01T04:55:57.348Z,1017.93
2019-06-01T04:56:57.768Z,1017.93
2019-06-01T04:57:57.322Z,1017.96
2019-06-01T04:58:57.320Z,1017.94
2019-06-01T04:59:57.308Z,1018.01
2019-06-01T05:00:57.296Z,1017.92
2019-06-01T05:01:57.300Z,1018.01
2019-06-01T05:03:05.276Z,1018.02
2019-06-01T05:03:58.274Z,1017.98
2019-06-01T05:04:57.253Z,1018.00
2019-06-01T05:05:57.248Z,1018.06
2019-06-01T05:06:57.245Z,1017.97
2019-06-01T05:07:57.219Z,1018.02
2019-06-01T05:08:57.208Z,1017.96
2019-06-01T05:09:57.204Z,1017.98
2019-06-01T05:10:57.218Z,1018.00
2019-06-01T05:11:57.198Z,1017.98
2019-06-01T05:12:57.173Z,1018.00
2019-06-01T05:13:57.163Z,1017.97
2019-06-01T05:14:57.152Z,1018.01
2019-06-01T05:15:57.140Z,1018.01
2019-06-01T05:16:57.141Z,1018.00
2019-06-01T05:17:57.113Z,1018.00
2019-06-01T05:18:57.111Z,1018.01
2019-06-01T05:19:57.107Z,1018.03
2019-06-01T05:20:57.089Z,1018.06
2019-06-01T05:21:57.092Z,1018.07
2019-06-01T05:22:57.067Z,1018.04
2019-06-01T05:23:57.054Z,1018.05
2019-06-01T05:24:57.043Z,1018.04
2019-06-01T05:25:57.032Z,1018.12
2019-06-01T05:26:57.038Z,1018.07
2019-06-01T05:27:57.011Z,1018.06
2019-06-01T05:28:57.009Z,1018.08
2019-06-01T05:29:56.995Z,1018.10
2019-06-01T05:30:57.710Z,1018.07
2019-06-01T05:31:56.985Z,1018.05
2019-06-01T05:32:56.958Z,1018.06
2019-06-01T05:33:56.958Z,1018.08
2019-06-01T05:34:56.936Z,1018.05
2019-06-01T05:35:56.923Z,1018.05
2019-06-01T05:36:56.927Z,1018.05
2019-06-01T05:37:56.904Z,1018.08
2019-06-01T05:38:56.896Z,1018.07
2019-06-01T05:39:56.881Z,1018.08
2019-06-01T05:40:56.880Z,1018.09
2019-06-01T05:41:56.872Z,1018.02
2019-06-01T05:42:56.855Z,1018.11
2019-06-01T05:43:56.844Z,1018.08
2019-06-01T05:44:56.834Z,1018.03
2019-06-01T05:45:56.833Z,1018.04
2019-06-01T05:46:57.329Z,1018.08
2019-06-01T05:47:56.803Z,1018.06
2019-06-01T05:48:56.788Z,1018.06
2019-06-01T05:49:56.776Z,1018.05
2019-06-01T05:50:56.770Z,1018.09
2019-06-01T05:51:56.775Z,1018.08
2019-06-01T05:52:56.744Z,1018.07
2019-06-01T05:53:56.752Z,1018.09
2019-06-01T05:54:56.725Z,1018.05
2019-06-01T05:55:56.717Z,1018.07
2019-06-01T05:56:56.842Z,1018.05
2019-06-01T05:57:56.691Z,1018.10
2019-06-01T05:58:56.688Z,1018.10
2019-06-01T05:59:57.253Z,1018.07
2019-06-01T06:00:56.662Z,1018.10
2019-06-01T06:01:56.663Z,1018.08
2019-06-01T06:02:56.640Z,1018.10
2019-06-01T06:03:56.625Z,1018.07
2019-06-01T06:04:56.615Z,1018.06
2019-06-01T06:05:56.610Z,1018.06
2019-06-01T06:06:56.634Z,1018.11
2019-06-01T06:07:56.599Z,1018.08
2019-06-01T06:08:56.575Z,1018.13
2019-06-01T06:09:56.568Z,1018.12
2019-06-01T06:10:56.554Z,1018.11
2019-06-01T06:11:56.566Z,1018.11
2019-06-01T06:12:56.531Z,1018.12
2019-06-01T06:13:56.531Z,1018.14
2019-06-01T06:14:56.510Z,1018.13
2019-06-01T06:15:56.509Z,1018.17
2019-06-01T06:16:56.516Z,1018.14
2019-06-01T06:17:56.492Z,1018.15
2019-06-01T06:18:56.470Z,1018.13
2019-06-01T06:19:56.470Z,1018.16
2019-06-01T06:20:57.262Z,1018.13
2019-06-01T06:21:56.453Z,1018.13
2019-06-01T06:22:56.431Z,1018.12
2019-06-01T06:23:56.418Z,1018.17
2019-06-01T06:24:56.466Z,1018.15
2019-06-01T06:25:57.319Z,1018.17
2019-06-01T06:26:56.400Z,1018.17
2019-06-01T06:27:56.383Z,1018.11
2019-06-01T06:28:56.412Z,1018.15
2019-06-01T06:29:56.355Z,1018.13
2019-06-01T06:30:56.413Z,1018.11
2019-06-01T06:31:56.365Z,1018.15
2019-06-01T06:32:56.336Z,1018.15
2019-06-01T06:33:57.229Z,1018.16
2019-06-01T06:34:57.267Z,1018.14
2019-06-01T06:35:56.304Z,1018.20
2019-06-01T06:36:56.297Z,1018.15
2019-06-01T06:37:56.281Z,1018.16
2019-06-01T06:38:56.291Z,1018.13
2019-06-01T06:39:56.254Z,1018.14
2019-06-01T06:40:56.245Z,1018.17
2019-06-01T06:41:56.265Z,1018.12
2019-06-01T06:42:56.242Z,1018.15
2019-06-01T06:43:56.229Z,1018.18
2019-06-01T06:44:56.199Z,1018.14
2019-06-01T06:45:56.195Z,1018.15
2019-06-01T06:46:56.177Z,1018.14
2019-06-01T06:47:56.197Z,1018.14
2019-06-01T06:48:56.162Z,1018.14
2019-06-01T06:49:56.157Z,1018.15
2019-06-01T06:50:56.153Z,1018.15
2019-06-01T06:51:56.144Z,1018.16
2019-06-01T06:52:56.143Z,1018.18
2019-06-01T06:53:56.113Z,1018.17
2019-06-01T06:54:56.093Z,1018.17
2019-06-01T06:55:56.090Z,1018.19
2019-06-01T06:56:56.734Z,1018.17
2019-06-01T06:57:56.093Z,1018.17
2019-06-01T06:58:56.074Z,1018.14
2019-06-01T06:59:56.804Z,1018.20
2019-06-01T07:00:56.029Z,1018.18
2019-06-01T07:01:56.039Z,1018.13
2019-06-01T07:02:56.107Z,1018.17
2019-06-01T07:04:09.397Z,1018.14
2019-06-01T07:04:57.040Z,1018.13
2019-06-01T07:05:55.984Z,1018.18
2019-06-01T07:06:56.054Z,1018.15
2019-06-01T07:07:55.987Z,1018.18
2019-06-01T07:08:55.950Z,1018.17
2019-06-01T07:09:55.951Z,1018.14
2019-06-01T07:10:55.929Z,1018.14
2019-06-01T07:11:55.942Z,1018.13
2019-06-01T07:12:55.923Z,1018.17
2019-06-01T07:13:55.896Z,1018.17
2019-06-01T07:14:55.897Z,1018.16
2019-06-01T07:15:55.891Z,1018.15
2019-06-01T07:16:55.874Z,1018.16
2019-06-01T07:17:55.868Z,1018.14
2019-06-01T07:18:55.841Z,1018.14
2019-06-01T07:19:55.831Z,1018.14
2019-06-01T07:20:55.822Z,1018.17
2019-06-01T07:21:55.810Z,1018.19
2019-06-01T07:22:55.815Z,1018.16
2019-06-01T07:23:55.811Z,1018.16
2019-06-01T07:24:55.786Z,1018.16
2019-06-01T07:25:55.774Z,1018.15
2019-06-01T07:26:55.766Z,1018.19
2019-06-01T07:27:55.769Z,1018.15
2019-06-01T07:28:55.737Z,1018.16
2019-06-01T07:29:55.727Z,1018.15
2019-06-01T07:30:55.714Z,1018.13
2019-06-01T07:31:55.702Z,1018.10
2019-06-01T07:32:55.718Z,1018.12
2019-06-01T07:33:55.705Z,1018.18
2019-06-01T07:34:55.682Z,1018.19
2019-06-01T07:35:55.669Z,1018.17
2019-06-01T07:36:55.714Z,1018.16
2019-06-01T07:37:55.658Z,1018.18
2019-06-01T07:38:55.640Z,1018.13
2019-06-01T07:39:55.624Z,1018.14
2019-06-01T07:40:55.624Z,1018.16
2019-06-01T07:41:55.624Z,1018.21
2019-06-01T07:42:55.611Z,1018.21
2019-06-01T07:43:55.583Z,1018.14
2019-06-01T07:44:55.571Z,1018.20
2019-06-01T07:45:55.569Z,1018.21
2019-06-01T07:46:55.564Z,1018.21
2019-06-01T07:47:55.687Z,1018.17
2019-06-01T07:48:55.573Z,1018.18
2019-06-01T07:49:55.574Z,1018.19
2019-06-01T07:50:55.600Z,1018.12
2019-06-01T07:51:55.720Z,1018.17
2019-06-01T07:52:55.564Z,1018.18
2019-06-01T07:53:55.510Z,1018.15
2019-06-01T07:54:55.549Z,1018.16
2019-06-01T07:55:55.529Z,1018.14
2019-06-01T07:56:55.486Z,1018.22
2019-06-01T07:57:55.560Z,1018.19
2019-06-01T07:58:55.456Z,1018.20
2019-06-01T07:59:55.424Z,1018.19
2019-06-01T08:00:55.411Z,1018.19
2019-06-01T08:01:55.488Z,1018.21
2019-06-01T08:02:55.449Z,1018.21
2019-06-01T08:03:55.396Z,1018.23
2019-06-01T08:04:55.404Z,1018.19
2019-06-01T08:05:55.440Z,1018.21
2019-06-01T08:06:55.463Z,1018.20
2019-06-01T08:07:55.439Z,1018.19
2019-06-01T08:08:55.362Z,1018.19
2019-06-01T08:09:55.364Z,1018.18
2019-06-01T08:10:55.339Z,1018.21
2019-06-01T08:11:55.304Z,1018.20
2019-06-01T08:12:55.348Z,1018.16
2019-06-01T08:13:55.301Z,1018.18
2019-06-01T08:14:55.290Z,1018.20
2019-06-01T08:15:55.285Z,1018.17
2019-06-01T08:16:55.256Z,1018.17
2019-06-01T08:17:55.259Z,1018.19
2019-06-01T08:18:55.223Z,1018.24
2019-06-01T08:19:55.216Z,1018.24
2019-06-01T08:20:55.199Z,1018.22
2019-06-01T08:21:55.188Z,1018.20
2019-06-01T08:22:55.191Z,1018.23
2019-06-01T08:23:55.191Z,1018.24
2019-06-01T08:24:55.157Z,1018.22
2019-06-01T08:25:55.155Z,1018.15
2019-06-01T08:26:55.139Z,1018.21
2019-06-01T08:27:55.152Z,1018.19
2019-06-01T08:28:55.122Z,1018.22
2019-06-01T08:29:55.105Z,1018.16
2019-06-01T08:30:55.116Z,1018.17
2019-06-01T08:31:56.019Z,1018.16
2019-06-01T08:32:55.089Z,1018.17
2019-06-01T08:33:55.063Z,1018.19
2019-06-01T08:35:07.972Z,1018.10
2019-06-01T08:35:56.087Z,1018.12
2019-06-01T08:36:55.172Z,1018.13
2019-06-01T08:37:55.158Z,1018.12
2019-06-01T08:38:55.087Z,1018.01
2019-06-01T08:39:58.907Z,1018.05
2019-06-01T08:40:55.029Z,1018.07
2019-06-01T08:41:54.990Z,1018.09
2019-06-01T08:42:55.112Z,1018.11
2019-06-01T08:43:54.991Z,1018.06
2019-06-01T08:44:55.003Z,1018.12
2019-06-01T08:45:54.977Z,1018.13
2019-06-01T08:46:55.010Z,1018.10
2019-06-01T08:47:55.038Z,1018.06
2019-06-01T08:48:55.025Z,1018.10
2019-06-01T08:49:54.975Z,1018.06
2019-06-01T08:50:54.913Z,1018.00
2019-06-01T08:51:54.993Z,1018.01
2019-06-01T08:52:54.918Z,1018.05
2019-06-01T08:53:54.959Z,1018.01
2019-06-01T08:54:54.860Z,1017.97
2019-06-01T08:55:54.875Z,1018.01
2019-06-01T08:56:54.855Z,1018.02
2019-06-01T08:57:54.917Z,1017.95
2019-06-01T08:58:54.885Z,1017.90
2019-06-01T08:59:54.800Z,1017.95
2019-06-01T09:00:54.824Z,1017.91
2019-06-01T09:01:54.858Z,1017.92
2019-06-01T09:02:54.820Z,1017.86
2019-06-01T09:03:55.861Z,1017.86
2019-06-01T09:04:54.767Z,1017.77
2019-06-01T09:05:54.790Z,1017.83
2019-06-01T09:06:54.744Z,1017.79
2019-06-01T09:07:54.763Z,1017.76
2019-06-01T09:08:54.751Z,1017.76
2019-06-01T09:09:54.735Z,1017.78
2019-06-01T09:10:54.727Z,1017.81
2019-06-01T09:11:54.785Z,1017.72
2019-06-01T09:12:54.710Z,1017.75
2019-06-01T09:13:54.795Z,1017.75
2019-06-01T09:14:54.664Z,1017.76
2019-06-01T09:15:54.656Z,1017.76
2019-06-01T09:16:54.647Z,1017.75
2019-06-01T09:17:54.667Z,1017.69
2019-06-01T09:18:54.817Z,1017.70
2019-06-01T09:19:54.677Z,1017.74
2019-06-01T09:20:54.697Z,1017.75
2019-06-01T09:21:54.607Z,1017.77
2019-06-01T09:22:54.600Z,1017.74
2019-06-01T09:23:54.619Z,1017.73
2019-06-01T09:24:54.548Z,1017.74
2019-06-01T09:25:54.549Z,1017.71
2019-06-01T09:26:54.524Z,1017.70
2019-06-01T09:27:54.598Z,1017.75
2019-06-01T09:28:54.549Z,1017.72
2019-06-01T09:29:54.512Z,1017.74
2019-06-01T09:30:54.517Z,1017.71
2019-06-01T09:31:54.496Z,1017.74
2019-06-01T09:32:54.477Z,1017.69
2019-06-01T09:33:54.469Z,1017.72
2019-06-01T09:34:54.452Z,1017.76
2019-06-01T09:35:56.354Z,1017.69
2019-06-01T09:36:55.613Z,1017.66
2019-06-01T09:37:54.441Z,1017.68
2019-06-01T09:38:54.434Z,1017.66
2019-06-01T09:39:54.431Z,1017.64
2019-06-01T09:40:54.433Z,1017.69
2019-06-01T09:41:54.365Z,1017.72
2019-06-01T09:42:54.388Z,1017.68
2019-06-01T09:43:54.405Z,1017.69
2019-06-01T09:44:54.367Z,1017.68
2019-06-01T09:45:54.376Z,1017.71
2019-06-01T09:46:54.305Z,1017.62
2019-06-01T09:47:54.347Z,1017.63
2019-06-01T09:48:54.312Z,1017.60
2019-06-01T09:49:54.297Z,1017.61
2019-06-01T09:50:54.293Z,1017.60
2019-06-01T09:51:54.293Z,1017.56
2019-06-01T09:52:54.286Z,1017.51
2019-06-01T09:53:54.323Z,1017.54
2019-06-01T09:54:54.298Z,1017.57
2019-06-01T09:55:54.248Z,1017.55
2019-06-01T09:56:54.279Z,1017.57
2019-06-01T09:57:54.297Z,1017.60
2019-06-01T09:58:54.214Z,1017.59
2019-06-01T09:59:54.232Z,1017.62
2019-06-01T10:00:54.224Z,1017.59
2019-06-01T10:01:54.269Z,1017.60
2019-06-01T10:02:54.161Z,1017.57
2019-06-01T10:03:54.249Z,1017.56
2019-06-01T10:04:54.170Z,1017.58
2019-06-01T10:06:01.951Z,1017.57
2019-06-01T10:06:55.142Z,1017.61
2019-06-01T10:07:54.129Z,1017.59
2019-06-01T10:08:54.155Z,1017.57
2019-06-01T10:09:54.115Z,1017.49
2019-06-01T10:10:54.113Z,1017.56
2019-06-01T10:11:54.077Z,1017.53
2019-06-01T10:12:54.089Z,1017.53
2019-06-01T10:13:54.077Z,1017.50
2019-06-01T10:14:54.045Z,1017.47
2019-06-01T10:15:54.018Z,1017.38
2019-06-01T10:16:54.107Z,1017.39
2019-06-01T10:17:54.071Z,1017.38
2019-06-01T10:18:54.071Z,1017.40
2019-06-01T10:19:53.997Z,1017.37
2019-06-01T10:20:53.986Z,1017.39
2019-06-01T10:21:53.972Z,1017.38
2019-06-01T10:22:53.958Z,1017.35
2019-06-01T10:23:53.993Z,1017.33
2019-06-01T10:24:54.855Z,1017.33
2019-06-01T10:25:53.926Z,1017.35
2019-06-01T10:26:53.940Z,1017.33
2019-06-01T10:27:53.927Z,1017.29
2019-06-01T10:28:53.914Z,1017.28
2019-06-01T10:29:53.885Z,1017.29
2019-06-01T10:30:53.885Z,1017.23
2019-06-01T10:31:53.845Z,1017.30
2019-06-01T10:32:53.853Z,1017.28
2019-06-01T10:33:53.929Z,1017.23
2019-06-01T10:34:53.815Z,1017.25
2019-06-01T10:35:53.824Z,1017.20
2019-06-01T10:36:53.801Z,1017.24
2019-06-01T10:37:53.814Z,1017.27
2019-06-01T10:38:53.824Z,1017.24
2019-06-01T10:39:53.760Z,1017.22
2019-06-01T10:40:53.777Z,1017.18
2019-06-01T10:41:53.778Z,1017.22
2019-06-01T10:42:53.775Z,1017.20
2019-06-01T10:43:53.783Z,1017.18
2019-06-01T10:44:53.748Z,1017.13
2019-06-01T10:45:53.735Z,1017.13
2019-06-01T10:46:53.805Z,1017.12
2019-06-01T10:47:53.726Z,1017.15
2019-06-01T10:48:53.660Z,1017.19
2019-06-01T10:49:53.743Z,1017.17
2019-06-01T10:50:53.698Z,1017.12
2019-06-01T10:51:53.695Z,1017.10
2019-06-01T10:52:53.618Z,1017.12
2019-06-01T10:53:53.611Z,1017.14
2019-06-01T10:54:53.627Z,1017.14
2019-06-01T10:55:53.615Z,1017.15
2019-06-01T10:56:53.698Z,1017.20
2019-06-01T10:57:53.619Z,1017.18
2019-06-01T10:59:00.135Z,1017.14
2019-06-01T10:59:54.693Z,1017.12
2019-06-01T11:00:53.535Z,1017.11
2019-06-01T11:01:53.554Z,1017.08
2019-06-01T11:02:53.578Z,1017.02
2019-06-01T11:03:53.579Z,1017.07
2019-06-01T11:04:53.522Z,1017.00
2019-06-01T11:05:53.533Z,1016.99
2019-06-01T11:06:54.381Z,1017.03
2019-06-01T11:07:53.461Z,1016.96
2019-06-01T11:08:53.554Z,1016.97
2019-06-01T11:09:53.509Z,1016.97
2019-06-01T11:10:53.578Z,1016.91
2019-06-01T11:11:53.450Z,1016.91
2019-06-01T11:12:53.406Z,1016.92
2019-06-01T11:13:53.403Z,1016.87
2019-06-01T11:14:53.505Z,1016.96
2019-06-01T11:15:53.396Z,1016.96
2019-06-01T11:16:56.430Z,1016.95
2019-06-01T11:17:53.380Z,1016.93
2019-06-01T11:18:53.380Z,1016.92
2019-06-01T11:19:53.385Z,1016.96
2019-06-01T11:20:53.350Z,1016.95
2019-06-01T11:21:53.375Z,1016.93
2019-06-01T11:22:53.323Z,1016.91
2019-06-01T11:23:53.328Z,1016.89
2019-06-01T11:24:53.353Z,1016.86
2019-06-01T11:25:53.294Z,1016.83
2019-06-01T11:26:53.285Z,1016.77
2019-06-01T11:27:53.297Z,1016.79
2019-06-01T11:28:53.276Z,1016.72
2019-06-01T11:29:53.425Z,1016.76
2019-06-01T11:30:53.252Z,1016.70
2019-06-01T11:31:53.236Z,1016.76
2019-06-01T11:32:53.224Z,1016.71
2019-06-01T11:33:53.200Z,1016.73
2019-06-01T11:34:53.264Z,1016.74
2019-06-01T11:35:53.266Z,1016.80
2019-06-01T11:37:05.047Z,1016.78
2019-06-01T11:37:54.189Z,1016.67
2019-06-01T11:38:53.140Z,1016.74
2019-06-01T11:39:53.250Z,1016.66
2019-06-01T11:40:53.144Z,1016.63
2019-06-01T11:41:53.149Z,1016.66
2019-06-01T11:42:53.115Z,1016.65
2019-06-01T11:43:53.113Z,1016.63
2019-06-01T11:44:53.241Z,1016.59
2019-06-01T11:45:53.076Z,1016.57
2019-06-01T11:46:53.110Z,1016.61
2019-06-01T11:47:53.102Z,1016.56
2019-06-01T11:48:53.040Z,1016.64
2019-06-01T11:49:53.103Z,1016.56
2019-06-01T11:50:53.040Z,1016.56
2019-06-01T11:51:53.116Z,1016.55
2019-06-01T11:52:53.004Z,1016.60
2019-06-01T11:53:52.996Z,1016.48
2019-06-01T11:54:53.056Z,1016.50
2019-06-01T11:55:52.984Z,1016.49
2019-06-01T11:56:53.004Z,1016.45
2019-06-01T11:57:52.990Z,1016.51
2019-06-01T11:58:52.950Z,1016.45
2019-06-01T11:59:52.973Z,1016.46
2019-06-01T12:00:53.008Z,1016.43
2019-06-01T12:01:52.922Z,1016.49
2019-06-01T12:02:52.886Z,1016.51
2019-06-01T12:03:52.907Z,1016.47
2019-06-01T12:04:52.907Z,1016.47